KMSY/MSY METAR and TAF weather

Enter ICAO airport designator
Station Type Date Time Source
KMSY METAR 2019/12/11 11:53 UTC NOAA

KMSY 111153Z 03016G21KT 10SM BKN019 OVC023 09/05 A3037 RMK AO2 PRESRR SLP287 60055 70079 T00890050 10100 20089 53033


Station Type Date Time Source
KMSY Decoded METAR 2019/12/11 11:53 UTC NOAA

NEW ORLEANS INTERNATIONAL AIRPORT, LA, United States (KMSY) 30-00N 90-15W 5M
Dec 11, 2019 - 06:53 AM EST / 2019.12.11 1153 UTC
Wind: from the NNE (030 degrees) at 18 MPH (16 KT) gusting to 24 MPH (21 KT):0
Visibility: 10 mile(s):0
Sky conditions: overcast
Temperature: 48.0 F (8.9 C)
Dew Point: 41.0 F (5.0 C)
Relative Humidity: 76%
Pressure (altimeter): 30.37 in. Hg (1028 hPa)
Pressure tendency: rising rapidly - 0.10 inches (3.3 hPa) higher than three hours ago
ob: KMSY 111153Z 03016G21KT 10SM BKN019 OVC023 09/05 A3037 RMK AO2 PRESRR SLP287 60055 70079 T00890050 10100 20089 53033
cycle: 12

Station Type Date Time Source
KMSY TAF 2019/12/11 12:22 UTC NOAA

TAF KMSY 111120Z 1112/1218 03011G22KT P6SM BKN016
FM111600 05012G22KT P6SM SCT035 OVC050
FM120900 06013G22KT P6SM FEW030 SCT200

Example: see airport list